sensor_id;sensor_type;location;lat;lon;timestamp;P1;durP1;ratioP1;P2;durP2;ratioP2
47860;SDS011;33620;52.340;5.984;2022-08-21T00:01:21;10.77;;;5.72;;
47860;SDS011;33620;52.340;5.984;2022-08-21T00:03:49;11.27;;;5.05;;
47860;SDS011;33620;52.340;5.984;2022-08-21T00:06:15;12.68;;;5.20;;
47860;SDS011;33620;52.340;5.984;2022-08-21T00:08:41;11.63;;;5.90;;
47860;SDS011;33620;52.340;5.984;2022-08-21T00:11:06;12.10;;;5.35;;
47860;SDS011;33620;52.340;5.984;2022-08-21T00:13:32;14.68;;;6.35;;
47860;SDS011;33620;52.340;5.984;2022-08-21T00:15:58;18.23;;;6.72;;
47860;SDS011;33620;52.340;5.984;2022-08-21T00:18:24;15.20;;;6.15;;
47860;SDS011;33620;52.340;5.984;2022-08-21T00:20:50;10.02;;;5.82;;
47860;SDS011;33620;52.340;5.984;2022-08-21T00:23:16;14.82;;;6.07;;
47860;SDS011;33620;52.340;5.984;2022-08-21T00:25:42;11.52;;;6.07;;
47860;SDS011;33620;52.340;5.984;2022-08-21T00:28:09;11.43;;;6.05;;
47860;SDS011;33620;52.340;5.984;2022-08-21T00:30:35;13.18;;;6.28;;
47860;SDS011;33620;52.340;5.984;2022-08-21T00:33:01;13.77;;;6.10;;
47860;SDS011;33620;52.340;5.984;2022-08-21T00:35:29;9.48;;;5.45;;
47860;SDS011;33620;52.340;5.984;2022-08-21T00:38:01;12.00;;;5.80;;
47860;SDS011;33620;52.340;5.984;2022-08-21T00:40:30;8.57;;;5.20;;
47860;SDS011;33620;52.340;5.984;2022-08-21T00:42:58;11.25;;;5.65;;
47860;SDS011;33620;52.340;5.984;2022-08-21T00:45:24;12.40;;;5.40;;
47860;SDS011;33620;52.340;5.984;2022-08-21T00:47:51;10.45;;;4.93;;
47860;SDS011;33620;52.340;5.984;2022-08-21T00:50:17;12.20;;;5.18;;
47860;SDS011;33620;52.340;5.984;2022-08-21T00:52:43;9.65;;;4.50;;
47860;SDS011;33620;52.340;5.984;2022-08-21T00:55:09;12.75;;;4.95;;
47860;SDS011;33620;52.340;5.984;2022-08-21T00:57:39;13.23;;;4.90;;
47860;SDS011;33620;52.340;5.984;2022-08-21T01:00:09;12.10;;;4.53;;
47860;SDS011;33620;52.340;5.984;2022-08-21T01:02:38;9.55;;;4.75;;
47860;SDS011;33620;52.340;5.984;2022-08-21T01:05:03;10.45;;;4.40;;
47860;SDS011;33620;52.340;5.984;2022-08-21T01:07:29;10.60;;;4.30;;
47860;SDS011;33620;52.340;5.984;2022-08-21T01:09:55;8.13;;;4.15;;
47860;SDS011;33620;52.340;5.984;2022-08-21T01:12:20;8.77;;;4.10;;
47860;SDS011;33620;52.340;5.984;2022-08-21T01:14:46;7.97;;;3.88;;
47860;SDS011;33620;52.340;5.984;2022-08-21T01:17:13;10.52;;;4.20;;
47860;SDS011;33620;52.340;5.984;2022-08-21T01:19:40;9.02;;;4.45;;
47860;SDS011;33620;52.340;5.984;2022-08-21T01:22:06;8.50;;;4.38;;
47860;SDS011;33620;52.340;5.984;2022-08-21T01:24:32;13.43;;;4.10;;
47860;SDS011;33620;52.340;5.984;2022-08-21T01:26:57;6.82;;;3.65;;
47860;SDS011;33620;52.340;5.984;2022-08-21T01:29:46;7.72;;;3.72;;
47860;SDS011;33620;52.340;5.984;2022-08-21T01:32:19;9.65;;;4.40;;
47860;SDS011;33620;52.340;5.984;2022-08-21T01:34:46;11.43;;;4.78;;
47860;SDS011;33620;52.340;5.984;2022-08-21T01:37:12;9.23;;;4.68;;
47860;SDS011;33620;52.340;5.984;2022-08-21T01:39:38;9.10;;;4.60;;
47860;SDS011;33620;52.340;5.984;2022-08-21T01:42:04;11.43;;;5.07;;
47860;SDS011;33620;52.340;5.984;2022-08-21T01:44:30;8.95;;;4.60;;
47860;SDS011;33620;52.340;5.984;2022-08-21T01:46:57;10.80;;;4.65;;
47860;SDS011;33620;52.340;5.984;2022-08-21T01:49:24;9.50;;;4.40;;
47860;SDS011;33620;52.340;5.984;2022-08-21T01:51:50;9.20;;;4.25;;
47860;SDS011;33620;52.340;5.984;2022-08-21T01:54:15;11.45;;;4.85;;
47860;SDS011;33620;52.340;5.984;2022-08-21T01:56:42;11.60;;;4.50;;
47860;SDS011;33620;52.340;5.984;2022-08-21T01:59:09;10.15;;;4.28;;
47860;SDS011;33620;52.340;5.984;2022-08-21T02:01:35;9.95;;;4.32;;
47860;SDS011;33620;52.340;5.984;2022-08-21T02:04:01;9.15;;;4.32;;
47860;SDS011;33620;52.340;5.984;2022-08-21T02:06:27;10.30;;;4.10;;
47860;SDS011;33620;52.340;5.984;2022-08-21T02:08:52;7.90;;;4.15;;
47860;SDS011;33620;52.340;5.984;2022-08-21T02:11:18;9.80;;;4.47;;
47860;SDS011;33620;52.340;5.984;2022-08-21T02:13:44;10.38;;;4.47;;
47860;SDS011;33620;52.340;5.984;2022-08-21T02:16:10;11.40;;;4.55;;
47860;SDS011;33620;52.340;5.984;2022-08-21T02:18:36;7.55;;;4.00;;
47860;SDS011;33620;52.340;5.984;2022-08-21T02:21:01;9.43;;;4.22;;
47860;SDS011;33620;52.340;5.984;2022-08-21T02:23:27;10.25;;;3.80;;
47860;SDS011;33620;52.340;5.984;2022-08-21T02:26:02;9.48;;;4.10;;
47860;SDS011;33620;52.340;5.984;2022-08-21T02:28:30;11.15;;;4.95;;
47860;SDS011;33620;52.340;5.984;2022-08-21T02:30:56;11.98;;;4.72;;
47860;SDS011;33620;52.340;5.984;2022-08-21T02:33:22;10.07;;;4.93;;
47860;SDS011;33620;52.340;5.984;2022-08-21T02:35:48;9.43;;;4.70;;
47860;SDS011;33620;52.340;5.984;2022-08-21T02:38:15;11.98;;;5.20;;
47860;SDS011;33620;52.340;5.984;2022-08-21T02:40:45;8.30;;;4.97;;
47860;SDS011;33620;52.340;5.984;2022-08-21T02:43:11;11.77;;;4.80;;
47860;SDS011;33620;52.340;5.984;2022-08-21T02:45:37;11.13;;;5.30;;
47860;SDS011;33620;52.340;5.984;2022-08-21T02:48:05;12.68;;;4.50;;
47860;SDS011;33620;52.340;5.984;2022-08-21T02:50:36;8.68;;;4.82;;
47860;SDS011;33620;52.340;5.984;2022-08-21T02:53:05;11.27;;;4.43;;
47860;SDS011;33620;52.340;5.984;2022-08-21T02:55:32;8.18;;;4.15;;
47860;SDS011;33620;52.340;5.984;2022-08-21T02:58:00;9.52;;;4.10;;
47860;SDS011;33620;52.340;5.984;2022-08-21T03:00:30;8.95;;;4.38;;
47860;SDS011;33620;52.340;5.984;2022-08-21T03:02:57;9.93;;;4.45;;
47860;SDS011;33620;52.340;5.984;2022-08-21T03:05:24;12.02;;;4.68;;
47860;SDS011;33620;52.340;5.984;2022-08-21T03:07:50;9.88;;;4.63;;
47860;SDS011;33620;52.340;5.984;2022-08-21T03:10:17;8.13;;;4.57;;
47860;SDS011;33620;52.340;5.984;2022-08-21T03:12:44;8.40;;;4.63;;
47860;SDS011;33620;52.340;5.984;2022-08-21T03:15:10;9.63;;;4.45;;
47860;SDS011;33620;52.340;5.984;2022-08-21T03:17:37;7.45;;;4.10;;
47860;SDS011;33620;52.340;5.984;2022-08-21T03:20:06;12.25;;;4.32;;
47860;SDS011;33620;52.340;5.984;2022-08-21T03:22:33;8.55;;;4.50;;
47860;SDS011;33620;52.340;5.984;2022-08-21T03:24:58;9.10;;;4.57;;
47860;SDS011;33620;52.340;5.984;2022-08-21T03:27:24;10.98;;;4.32;;
47860;SDS011;33620;52.340;5.984;2022-08-21T03:29:51;10.57;;;4.88;;
47860;SDS011;33620;52.340;5.984;2022-08-21T03:32:17;9.90;;;4.55;;
47860;SDS011;33620;52.340;5.984;2022-08-21T03:34:43;13.35;;;5.00;;
47860;SDS011;33620;52.340;5.984;2022-08-21T03:37:09;9.65;;;4.80;;
47860;SDS011;33620;52.340;5.984;2022-08-21T03:39:34;11.48;;;4.97;;
47860;SDS011;33620;52.340;5.984;2022-08-21T03:42:00;9.65;;;4.90;;
47860;SDS011;33620;52.340;5.984;2022-08-21T03:44:26;8.23;;;4.57;;
47860;SDS011;33620;52.340;5.984;2022-08-21T03:46:55;12.85;;;4.50;;
47860;SDS011;33620;52.340;5.984;2022-08-21T03:49:21;9.40;;;4.72;;
47860;SDS011;33620;52.340;5.984;2022-08-21T03:51:47;11.20;;;4.55;;
47860;SDS011;33620;52.340;5.984;2022-08-21T03:54:12;10.02;;;5.22;;
47860;SDS011;33620;52.340;5.984;2022-08-21T03:56:38;12.77;;;4.90;;
47860;SDS011;33620;52.340;5.984;2022-08-21T03:59:04;8.98;;;4.32;;
47860;SDS011;33620;52.340;5.984;2022-08-21T04:01:29;13.13;;;5.75;;
47860;SDS011;33620;52.340;5.984;2022-08-21T04:03:55;10.45;;;5.10;;
47860;SDS011;33620;52.340;5.984;2022-08-21T04:06:20;9.65;;;4.53;;
47860;SDS011;33620;52.340;5.984;2022-08-21T04:08:46;7.63;;;4.30;;
47860;SDS011;33620;52.340;5.984;2022-08-21T04:11:11;11.63;;;4.43;;
47860;SDS011;33620;52.340;5.984;2022-08-21T04:13:37;12.10;;;4.72;;
47860;SDS011;33620;52.340;5.984;2022-08-21T04:16:02;11.68;;;5.20;;
47860;SDS011;33620;52.340;5.984;2022-08-21T04:18:28;11.02;;;4.93;;
47860;SDS011;33620;52.340;5.984;2022-08-21T04:20:54;11.90;;;5.05;;
47860;SDS011;33620;52.340;5.984;2022-08-21T04:23:22;10.13;;;4.95;;
47860;SDS011;33620;52.340;5.984;2022-08-21T04:25:48;11.77;;;4.88;;
47860;SDS011;33620;52.340;5.984;2022-08-21T04:28:13;14.32;;;5.22;;
47860;SDS011;33620;52.340;5.984;2022-08-21T04:30:39;11.32;;;5.07;;
47860;SDS011;33620;52.340;5.984;2022-08-21T04:33:04;12.85;;;5.63;;
47860;SDS011;33620;52.340;5.984;2022-08-21T04:35:30;9.40;;;5.47;;
47860;SDS011;33620;52.340;5.984;2022-08-21T04:37:57;12.43;;;4.78;;
47860;SDS011;33620;52.340;5.984;2022-08-21T04:40:24;13.27;;;5.32;;
47860;SDS011;33620;52.340;5.984;2022-08-21T04:42:52;11.95;;;5.13;;
47860;SDS011;33620;52.340;5.984;2022-08-21T04:45:24;10.77;;;4.60;;
47860;SDS011;33620;52.340;5.984;2022-08-21T04:47:52;11.85;;;5.47;;
47860;SDS011;33620;52.340;5.984;2022-08-21T04:50:21;12.10;;;5.90;;
47860;SDS011;33620;52.340;5.984;2022-08-21T04:52:49;13.88;;;5.85;;
47860;SDS011;33620;52.340;5.984;2022-08-21T04:55:15;12.90;;;5.47;;
47860;SDS011;33620;52.340;5.984;2022-08-21T04:57:42;9.85;;;5.07;;
47860;SDS011;33620;52.340;5.984;2022-08-21T05:00:08;12.98;;;5.00;;
47860;SDS011;33620;52.340;5.984;2022-08-21T05:02:35;12.57;;;5.72;;
47860;SDS011;33620;52.340;5.984;2022-08-21T05:05:01;13.63;;;5.57;;
47860;SDS011;33620;52.340;5.984;2022-08-21T05:07:27;12.88;;;5.85;;
47860;SDS011;33620;52.340;5.984;2022-08-21T05:09:56;10.63;;;5.68;;
47860;SDS011;33620;52.340;5.984;2022-08-21T05:12:22;7.90;;;4.82;;
47860;SDS011;33620;52.340;5.984;2022-08-21T05:14:48;12.65;;;5.13;;
47860;SDS011;33620;52.340;5.984;2022-08-21T05:17:13;15.25;;;5.95;;
47860;SDS011;33620;52.340;5.984;2022-08-21T05:19:39;12.52;;;5.47;;
47860;SDS011;33620;52.340;5.984;2022-08-21T05:22:04;8.57;;;5.05;;
47860;SDS011;33620;52.340;5.984;2022-08-21T05:24:30;15.40;;;5.80;;
47860;SDS011;33620;52.340;5.984;2022-08-21T05:26:57;11.52;;;5.07;;
47860;SDS011;33620;52.340;5.984;2022-08-21T05:29:22;8.32;;;4.95;;
47860;SDS011;33620;52.340;5.984;2022-08-21T05:31:48;14.10;;;5.72;;
47860;SDS011;33620;52.340;5.984;2022-08-21T05:34:14;8.98;;;5.20;;
47860;SDS011;33620;52.340;5.984;2022-08-21T05:36:42;9.88;;;5.45;;
47860;SDS011;33620;52.340;5.984;2022-08-21T05:39:08;6.63;;;4.30;;
47860;SDS011;33620;52.340;5.984;2022-08-21T05:41:33;14.18;;;5.22;;
47860;SDS011;33620;52.340;5.984;2022-08-21T05:43:59;11.70;;;5.22;;
47860;SDS011;33620;52.340;5.984;2022-08-21T05:46:24;10.50;;;5.68;;
47860;SDS011;33620;52.340;5.984;2022-08-21T05:48:49;13.75;;;5.50;;
47860;SDS011;33620;52.340;5.984;2022-08-21T05:51:15;11.68;;;5.40;;
47860;SDS011;33620;52.340;5.984;2022-08-21T05:53:41;12.65;;;5.25;;
47860;SDS011;33620;52.340;5.984;2022-08-21T05:56:07;14.50;;;6.07;;
47860;SDS011;33620;52.340;5.984;2022-08-21T05:58:34;15.77;;;6.30;;
47860;SDS011;33620;52.340;5.984;2022-08-21T06:00:59;10.45;;;5.45;;
47860;SDS011;33620;52.340;5.984;2022-08-21T06:03:28;15.98;;;6.60;;
47860;SDS011;33620;52.340;5.984;2022-08-21T06:05:56;14.50;;;7.22;;
47860;SDS011;33620;52.340;5.984;2022-08-21T06:08:22;15.57;;;6.97;;
47860;SDS011;33620;52.340;5.984;2022-08-21T06:10:49;15.38;;;6.88;;
47860;SDS011;33620;52.340;5.984;2022-08-21T06:13:17;15.75;;;6.45;;
47860;SDS011;33620;52.340;5.984;2022-08-21T06:15:43;15.50;;;6.13;;
47860;SDS011;33620;52.340;5.984;2022-08-21T06:18:09;18.95;;;6.72;;
47860;SDS011;33620;52.340;5.984;2022-08-21T06:20:34;17.15;;;6.50;;
47860;SDS011;33620;52.340;5.984;2022-08-21T06:23:00;17.60;;;6.97;;
47860;SDS011;33620;52.340;5.984;2022-08-21T06:25:26;12.80;;;5.88;;
47860;SDS011;33620;52.340;5.984;2022-08-21T06:27:52;14.68;;;7.10;;
47860;SDS011;33620;52.340;5.984;2022-08-21T06:30:17;14.70;;;6.18;;
47860;SDS011;33620;52.340;5.984;2022-08-21T06:32:43;18.92;;;7.15;;
47860;SDS011;33620;52.340;5.984;2022-08-21T06:35:09;16.10;;;7.20;;
47860;SDS011;33620;52.340;5.984;2022-08-21T06:37:35;19.13;;;7.38;;
47860;SDS011;33620;52.340;5.984;2022-08-21T06:40:01;16.67;;;6.57;;
47860;SDS011;33620;52.340;5.984;2022-08-21T06:42:28;14.18;;;6.93;;
47860;SDS011;33620;52.340;5.984;2022-08-21T06:44:53;17.20;;;6.65;;
47860;SDS011;33620;52.340;5.984;2022-08-21T06:47:19;18.88;;;7.03;;
47860;SDS011;33620;52.340;5.984;2022-08-21T06:49:45;17.88;;;7.38;;
47860;SDS011;33620;52.340;5.984;2022-08-21T06:52:11;16.02;;;6.47;;
47860;SDS011;33620;52.340;5.984;2022-08-21T06:54:38;17.25;;;6.55;;
47860;SDS011;33620;52.340;5.984;2022-08-21T06:57:04;12.55;;;5.22;;
47860;SDS011;33620;52.340;5.984;2022-08-21T06:59:30;18.77;;;6.45;;
47860;SDS011;33620;52.340;5.984;2022-08-21T07:01:55;11.52;;;5.07;;
47860;SDS011;33620;52.340;5.984;2022-08-21T07:04:21;15.57;;;5.40;;
47860;SDS011;33620;52.340;5.984;2022-08-21T07:06:46;15.73;;;5.10;;
47860;SDS011;33620;52.340;5.984;2022-08-21T07:09:11;9.00;;;3.70;;
47860;SDS011;33620;52.340;5.984;2022-08-21T07:11:37;15.95;;;3.90;;
47860;SDS011;33620;52.340;5.984;2022-08-21T07:14:03;16.13;;;4.35;;
47860;SDS011;33620;52.340;5.984;2022-08-21T07:16:29;14.55;;;3.78;;
47860;SDS011;33620;52.340;5.984;2022-08-21T07:18:54;16.23;;;4.10;;
47860;SDS011;33620;52.340;5.984;2022-08-21T07:21:20;14.50;;;3.80;;
47860;SDS011;33620;52.340;5.984;2022-08-21T07:23:48;15.07;;;4.07;;
47860;SDS011;33620;52.340;5.984;2022-08-21T07:26:16;9.45;;;3.20;;
47860;SDS011;33620;52.340;5.984;2022-08-21T07:28:46;10.63;;;3.88;;
47860;SDS011;33620;52.340;5.984;2022-08-21T07:31:14;11.98;;;3.28;;
47860;SDS011;33620;52.340;5.984;2022-08-21T07:33:40;12.77;;;3.35;;
47860;SDS011;33620;52.340;5.984;2022-08-21T07:36:07;11.63;;;2.80;;
47860;SDS011;33620;52.340;5.984;2022-08-21T07:38:32;13.82;;;3.45;;
47860;SDS011;33620;52.340;5.984;2022-08-21T07:40:58;13.75;;;2.80;;
47860;SDS011;33620;52.340;5.984;2022-08-21T07:43:25;10.30;;;3.17;;
47860;SDS011;33620;52.340;5.984;2022-08-21T07:45:51;13.00;;;2.90;;
47860;SDS011;33620;52.340;5.984;2022-08-21T07:48:18;16.15;;;3.00;;
47860;SDS011;33620;52.340;5.984;2022-08-21T07:50:43;11.73;;;2.58;;
47860;SDS011;33620;52.340;5.984;2022-08-21T07:53:09;12.30;;;3.55;;
47860;SDS011;33620;52.340;5.984;2022-08-21T07:55:34;12.77;;;2.78;;
47860;SDS011;33620;52.340;5.984;2022-08-21T07:58:00;10.73;;;2.78;;
47860;SDS011;33620;52.340;5.984;2022-08-21T08:00:26;8.70;;;2.72;;
47860;SDS011;33620;52.340;5.984;2022-08-21T08:02:53;11.38;;;2.40;;
47860;SDS011;33620;52.340;5.984;2022-08-21T08:05:20;6.38;;;2.45;;
47860;SDS011;33620;52.340;5.984;2022-08-21T08:07:50;6.97;;;2.25;;
47860;SDS011;33620;52.340;5.984;2022-08-21T08:10:16;9.18;;;2.53;;
47860;SDS011;33620;52.340;5.984;2022-08-21T08:12:42;8.52;;;2.60;;
47860;SDS011;33620;52.340;5.984;2022-08-21T08:15:11;11.05;;;2.33;;
47860;SDS011;33620;52.340;5.984;2022-08-21T08:17:39;6.82;;;2.30;;
47860;SDS011;33620;52.340;5.984;2022-08-21T08:20:05;8.38;;;2.97;;
47860;SDS011;33620;52.340;5.984;2022-08-21T08:22:33;13.60;;;3.40;;
47860;SDS011;33620;52.340;5.984;2022-08-21T08:25:00;10.57;;;3.35;;
47860;SDS011;33620;52.340;5.984;2022-08-21T08:27:26;13.55;;;3.42;;
47860;SDS011;33620;52.340;5.984;2022-08-21T08:29:51;10.73;;;3.90;;
47860;SDS011;33620;52.340;5.984;2022-08-21T08:32:17;11.07;;;4.10;;
47860;SDS011;33620;52.340;5.984;2022-08-21T08:34:43;16.08;;;3.70;;
47860;SDS011;33620;52.340;5.984;2022-08-21T08:37:09;15.75;;;4.20;;
47860;SDS011;33620;52.340;5.984;2022-08-21T08:39:35;15.75;;;4.43;;
47860;SDS011;33620;52.340;5.984;2022-08-21T08:42:46;16.33;;;3.97;;
47860;SDS011;33620;52.340;5.984;2022-08-21T08:44:55;16.73;;;4.35;;
47860;SDS011;33620;52.340;5.984;2022-08-21T08:47:25;13.68;;;4.68;;
47860;SDS011;33620;52.340;5.984;2022-08-21T08:49:54;18.88;;;4.90;;
47860;SDS011;33620;52.340;5.984;2022-08-21T08:52:28;15.85;;;4.82;;
47860;SDS011;33620;52.340;5.984;2022-08-21T08:55:00;14.20;;;4.68;;
47860;SDS011;33620;52.340;5.984;2022-08-21T08:57:26;15.98;;;4.88;;
47860;SDS011;33620;52.340;5.984;2022-08-21T08:59:53;16.05;;;4.50;;
47860;SDS011;33620;52.340;5.984;2022-08-21T09:02:22;16.23;;;4.63;;
47860;SDS011;33620;52.340;5.984;2022-08-21T09:04:49;15.35;;;4.50;;
47860;SDS011;33620;52.340;5.984;2022-08-21T09:07:32;16.85;;;4.57;;
47860;SDS011;33620;52.340;5.984;2022-08-21T09:13:02;14.73;;;4.55;;
47860;SDS011;33620;52.340;5.984;2022-08-21T09:15:32;16.48;;;4.60;;
47860;SDS011;33620;52.340;5.984;2022-08-21T09:24:00;21.40;;;5.60;;
47860;SDS011;33620;52.340;5.984;2022-08-21T09:26:49;13.45;;;5.45;;
47860;SDS011;33620;52.340;5.984;2022-08-21T09:29:26;16.42;;;4.80;;
47860;SDS011;33620;52.340;5.984;2022-08-21T09:31:56;11.75;;;4.20;;
47860;SDS011;33620;52.340;5.984;2022-08-21T09:34:25;14.60;;;3.83;;
47860;SDS011;33620;52.340;5.984;2022-08-21T09:36:53;17.00;;;4.00;;
47860;SDS011;33620;52.340;5.984;2022-08-21T09:39:52;11.77;;;3.90;;
47860;SDS011;33620;52.340;5.984;2022-08-21T09:42:11;16.95;;;4.40;;
47860;SDS011;33620;52.340;5.984;2022-08-21T09:44:38;14.43;;;3.63;;
47860;SDS011;33620;52.340;5.984;2022-08-21T09:47:09;12.80;;;3.78;;
47860;SDS011;33620;52.340;5.984;2022-08-21T09:49:38;12.30;;;3.85;;
47860;SDS011;33620;52.340;5.984;2022-08-21T09:52:11;12.73;;;3.38;;
47860;SDS011;33620;52.340;5.984;2022-08-21T09:54:42;16.50;;;3.90;;
47860;SDS011;33620;52.340;5.984;2022-08-21T09:59:54;17.10;;;4.13;;
47860;SDS011;33620;52.340;5.984;2022-08-21T10:04:57;14.90;;;4.07;;
47860;SDS011;33620;52.340;5.984;2022-08-21T10:07:36;11.85;;;4.00;;
47860;SDS011;33620;52.340;5.984;2022-08-21T10:10:07;18.42;;;3.80;;
47860;SDS011;33620;52.340;5.984;2022-08-21T10:18:42;13.63;;;3.28;;
47860;SDS011;33620;52.340;5.984;2022-08-21T10:21:34;9.38;;;2.75;;
47860;SDS011;33620;52.340;5.984;2022-08-21T10:26:52;15.90;;;3.47;;
47860;SDS011;33620;52.340;5.984;2022-08-21T10:32:24;11.15;;;2.50;;
47860;SDS011;33620;52.340;5.984;2022-08-21T10:37:52;15.65;;;3.40;;
47860;SDS011;33620;52.340;5.984;2022-08-21T10:46:01;12.00;;;3.15;;
47860;SDS011;33620;52.340;5.984;2022-08-21T10:48:38;13.82;;;2.80;;
47860;SDS011;33620;52.340;5.984;2022-08-21T10:51:28;12.18;;;2.83;;
47860;SDS011;33620;52.340;5.984;2022-08-21T10:56:48;7.63;;;2.53;;
47860;SDS011;33620;52.340;5.984;2022-08-21T11:06:51;10.90;;;2.95;;
47860;SDS011;33620;52.340;5.984;2022-08-21T11:09:22;10.32;;;2.72;;
47860;SDS011;33620;52.340;5.984;2022-08-21T11:11:56;11.45;;;3.10;;
47860;SDS011;33620;52.340;5.984;2022-08-21T11:17:11;11.02;;;2.70;;
47860;SDS011;33620;52.340;5.984;2022-08-21T11:20:02;12.93;;;3.05;;
47860;SDS011;33620;52.340;5.984;2022-08-21T11:39:55;9.88;;;2.78;;
47860;SDS011;33620;52.340;5.984;2022-08-21T11:42:37;7.03;;;2.70;;
47860;SDS011;33620;52.340;5.984;2022-08-21T11:48:15;8.90;;;2.90;;
47860;SDS011;33620;52.340;5.984;2022-08-21T11:51:04;9.13;;;2.88;;
47860;SDS011;33620;52.340;5.984;2022-08-21T11:53:33;11.27;;;3.03;;
47860;SDS011;33620;52.340;5.984;2022-08-21T11:56:17;9.82;;;3.00;;
47860;SDS011;33620;52.340;5.984;2022-08-21T11:58:48;9.52;;;3.25;;
47860;SDS011;33620;52.340;5.984;2022-08-21T12:01:19;13.38;;;2.92;;
47860;SDS011;33620;52.340;5.984;2022-08-21T12:06:30;10.20;;;2.78;;
47860;SDS011;33620;52.340;5.984;2022-08-21T12:08:59;11.90;;;3.28;;
47860;SDS011;33620;52.340;5.984;2022-08-21T12:11:28;10.48;;;3.05;;
47860;SDS011;33620;52.340;5.984;2022-08-21T12:16:32;12.98;;;3.80;;
47860;SDS011;33620;52.340;5.984;2022-08-21T12:19:06;13.40;;;3.13;;
47860;SDS011;33620;52.340;5.984;2022-08-21T12:21:59;9.52;;;3.15;;
47860;SDS011;33620;52.340;5.984;2022-08-21T12:24:35;8.38;;;3.33;;
47860;SDS011;33620;52.340;5.984;2022-08-21T12:27:14;7.03;;;3.30;;
47860;SDS011;33620;52.340;5.984;2022-08-21T12:30:19;9.57;;;3.75;;
47860;SDS011;33620;52.340;5.984;2022-08-21T12:32:46;10.05;;;3.97;;
47860;SDS011;33620;52.340;5.984;2022-08-21T12:35:24;8.55;;;3.00;;
47860;SDS011;33620;52.340;5.984;2022-08-21T12:37:57;10.15;;;3.60;;
47860;SDS011;33620;52.340;5.984;2022-08-21T12:40:31;9.95;;;4.35;;
47860;SDS011;33620;52.340;5.984;2022-08-21T12:43:03;13.48;;;4.20;;
47860;SDS011;33620;52.340;5.984;2022-08-21T12:45:39;13.18;;;4.38;;
47860;SDS011;33620;52.340;5.984;2022-08-21T12:48:12;11.68;;;4.45;;
47860;SDS011;33620;52.340;5.984;2022-08-21T12:56:01;12.40;;;4.18;;
47860;SDS011;33620;52.340;5.984;2022-08-21T12:58:28;8.18;;;3.60;;
47860;SDS011;33620;52.340;5.984;2022-08-21T13:01:06;9.52;;;3.80;;
47860;SDS011;33620;52.340;5.984;2022-08-21T13:03:36;11.02;;;4.60;;
47860;SDS011;33620;52.340;5.984;2022-08-21T13:06:03;12.98;;;4.32;;
47860;SDS011;33620;52.340;5.984;2022-08-21T13:08:30;15.80;;;4.00;;
47860;SDS011;33620;52.340;5.984;2022-08-21T13:10:59;13.48;;;3.97;;
47860;SDS011;33620;52.340;5.984;2022-08-21T13:13:28;7.95;;;3.40;;
47860;SDS011;33620;52.340;5.984;2022-08-21T13:15:59;13.38;;;3.90;;
47860;SDS011;33620;52.340;5.984;2022-08-21T13:18:30;13.90;;;3.90;;
47860;SDS011;33620;52.340;5.984;2022-08-21T13:21:09;9.90;;;4.15;;
47860;SDS011;33620;52.340;5.984;2022-08-21T13:23:37;14.38;;;3.50;;
47860;SDS011;33620;52.340;5.984;2022-08-21T13:26:17;14.38;;;3.53;;
47860;SDS011;33620;52.340;5.984;2022-08-21T13:28:45;8.73;;;3.25;;
47860;SDS011;33620;52.340;5.984;2022-08-21T13:31:12;11.40;;;3.30;;
47860;SDS011;33620;52.340;5.984;2022-08-21T13:33:51;9.10;;;3.63;;
47860;SDS011;33620;52.340;5.984;2022-08-21T13:36:25;11.38;;;3.45;;
47860;SDS011;33620;52.340;5.984;2022-08-21T13:38:56;9.35;;;2.90;;
47860;SDS011;33620;52.340;5.984;2022-08-21T13:41:24;9.70;;;3.33;;
47860;SDS011;33620;52.340;5.984;2022-08-21T13:43:59;12.63;;;3.17;;
47860;SDS011;33620;52.340;5.984;2022-08-21T13:46:28;11.98;;;3.38;;
47860;SDS011;33620;52.340;5.984;2022-08-21T13:48:58;11.75;;;3.67;;
47860;SDS011;33620;52.340;5.984;2022-08-21T13:51:25;14.35;;;4.03;;
47860;SDS011;33620;52.340;5.984;2022-08-21T13:53:51;11.98;;;4.10;;
47860;SDS011;33620;52.340;5.984;2022-08-21T13:56:27;13.00;;;4.00;;
47860;SDS011;33620;52.340;5.984;2022-08-21T13:58:55;12.30;;;4.38;;
47860;SDS011;33620;52.340;5.984;2022-08-21T14:01:32;11.07;;;3.42;;
47860;SDS011;33620;52.340;5.984;2022-08-21T14:04:05;10.80;;;4.03;;
47860;SDS011;33620;52.340;5.984;2022-08-21T14:06:43;12.90;;;4.40;;
47860;SDS011;33620;52.340;5.984;2022-08-21T14:09:51;17.08;;;5.05;;
47860;SDS011;33620;52.340;5.984;2022-08-21T14:12:00;11.75;;;4.72;;
47860;SDS011;33620;52.340;5.984;2022-08-21T14:14:29;14.93;;;5.05;;
47860;SDS011;33620;52.340;5.984;2022-08-21T14:17:00;10.82;;;3.90;;
47860;SDS011;33620;52.340;5.984;2022-08-21T14:19:36;12.57;;;3.83;;
47860;SDS011;33620;52.340;5.984;2022-08-21T14:22:26;13.73;;;4.63;;
47860;SDS011;33620;52.340;5.984;2022-08-21T14:24:58;18.80;;;4.30;;
47860;SDS011;33620;52.340;5.984;2022-08-21T14:27:26;20.83;;;4.85;;
47860;SDS011;33620;52.340;5.984;2022-08-21T14:29:57;9.50;;;3.58;;
47860;SDS011;33620;52.340;5.984;2022-08-21T14:32:28;13.13;;;3.55;;
47860;SDS011;33620;52.340;5.984;2022-08-21T14:35:00;9.32;;;3.67;;
47860;SDS011;33620;52.340;5.984;2022-08-21T14:37:25;9.63;;;3.38;;
47860;SDS011;33620;52.340;5.984;2022-08-21T14:39:51;12.55;;;4.05;;
47860;SDS011;33620;52.340;5.984;2022-08-21T14:42:16;13.77;;;3.92;;
47860;SDS011;33620;52.340;5.984;2022-08-21T14:44:42;10.40;;;3.10;;
47860;SDS011;33620;52.340;5.984;2022-08-21T14:47:07;13.77;;;4.32;;
47860;SDS011;33620;52.340;5.984;2022-08-21T14:49:34;9.98;;;3.33;;
47860;SDS011;33620;52.340;5.984;2022-08-21T14:51:59;11.10;;;3.10;;
47860;SDS011;33620;52.340;5.984;2022-08-21T14:54:28;13.18;;;3.17;;
47860;SDS011;33620;52.340;5.984;2022-08-21T14:56:56;8.13;;;2.88;;
47860;SDS011;33620;52.340;5.984;2022-08-21T14:59:23;14.00;;;3.42;;
47860;SDS011;33620;52.340;5.984;2022-08-21T15:01:50;10.02;;;3.17;;
47860;SDS011;33620;52.340;5.984;2022-08-21T15:04:15;11.68;;;3.58;;
47860;SDS011;33620;52.340;5.984;2022-08-21T15:06:40;12.43;;;3.55;;
47860;SDS011;33620;52.340;5.984;2022-08-21T15:09:06;10.27;;;3.00;;
47860;SDS011;33620;52.340;5.984;2022-08-21T15:11:32;11.27;;;2.90;;
47860;SDS011;33620;52.340;5.984;2022-08-21T15:13:59;13.50;;;3.08;;
47860;SDS011;33620;52.340;5.984;2022-08-21T15:16:27;12.55;;;3.15;;
47860;SDS011;33620;52.340;5.984;2022-08-21T15:18:56;6.47;;;2.80;;
47860;SDS011;33620;52.340;5.984;2022-08-21T15:21:21;11.05;;;3.35;;
47860;SDS011;33620;52.340;5.984;2022-08-21T15:23:47;11.48;;;2.80;;
47860;SDS011;33620;52.340;5.984;2022-08-21T15:26:12;16.55;;;2.92;;
47860;SDS011;33620;52.340;5.984;2022-08-21T15:28:38;11.45;;;3.85;;
47860;SDS011;33620;52.340;5.984;2022-08-21T15:31:04;10.55;;;2.33;;
47860;SDS011;33620;52.340;5.984;2022-08-21T15:33:30;12.85;;;2.92;;
47860;SDS011;33620;52.340;5.984;2022-08-21T15:35:55;9.50;;;2.72;;
47860;SDS011;33620;52.340;5.984;2022-08-21T15:38:21;12.05;;;2.90;;
47860;SDS011;33620;52.340;5.984;2022-08-21T15:40:47;9.93;;;3.00;;
47860;SDS011;33620;52.340;5.984;2022-08-21T15:43:21;8.95;;;2.90;;
47860;SDS011;33620;52.340;5.984;2022-08-21T15:46:02;11.35;;;2.70;;
47860;SDS011;33620;52.340;5.984;2022-08-21T15:48:27;8.00;;;3.03;;
47860;SDS011;33620;52.340;5.984;2022-08-21T15:50:53;11.68;;;2.80;;
47860;SDS011;33620;52.340;5.984;2022-08-21T15:53:19;8.23;;;2.85;;
47860;SDS011;33620;52.340;5.984;2022-08-21T15:55:44;10.25;;;2.90;;
47860;SDS011;33620;52.340;5.984;2022-08-21T15:58:12;10.73;;;3.47;;
47860;SDS011;33620;52.340;5.984;2022-08-21T16:00:39;7.85;;;2.90;;
47860;SDS011;33620;52.340;5.984;2022-08-21T16:03:05;10.85;;;2.80;;
47860;SDS011;33620;52.340;5.984;2022-08-21T16:05:31;9.02;;;2.83;;